Terminal Aerodrome Forecast
Issued by NWS Pocatello, ID

Home | Current Version | Previous Version | Text Only | Print | Product List | Glossary On
Versions: 1 2 3 4 5 6 7 8 9 10 11 12 13
000
FTUS45 KPIH 252300
TAFBYI
TAF
KBYI 252320Z 2600/2624 19015KT P6SM SCT150 BKN200
     FM260300 19010KT P6SM SCT150 BKN200
     FM261000 22016KT P6SM VCSH SCT080 BKN120
     FM261400 25018G28KT P6SM VCSH SCT080 BKN120
     FM261900 28015G25KT P6SM SCT100 BKN200=

USA.gov is the U.S. government's official web portal to all federal, state and local government web resources and services.